sensor_id;sensor_type;location;lat;lon;timestamp;pressure;altitude;pressure_sealevel;temperature;humidity
5883;BME280;2967;51.488;6.618;2023-01-27T00:00:49;102069.94;;;5.73;100.00
5883;BME280;2967;51.488;6.618;2023-01-27T00:05:52;102066.75;;;5.61;100.00
5883;BME280;2967;51.488;6.618;2023-01-27T00:10:56;102078.00;;;5.66;100.00
5883;BME280;2967;51.488;6.618;2023-01-27T00:16:14;102059.75;;;5.61;100.00
5883;BME280;2967;51.488;6.618;2023-01-27T00:21:17;102077.22;;;5.62;100.00
5883;BME280;2967;51.488;6.618;2023-01-27T00:26:37;102067.53;;;5.64;100.00
5883;BME280;2967;51.488;6.618;2023-01-27T00:31:41;102077.00;;;5.71;100.00
5883;BME280;2967;51.488;6.618;2023-01-27T00:37:04;102077.75;;;5.76;100.00
5883;BME280;2967;51.488;6.618;2023-01-27T00:42:06;102071.59;;;5.77;100.00
5883;BME280;2967;51.488;6.618;2023-01-27T00:47:11;102075.00;;;5.82;100.00
5883;BME280;2967;51.488;6.618;2023-01-27T00:52:13;102074.19;;;5.80;100.00
5883;BME280;2967;51.488;6.618;2023-01-27T00:57:16;102068.91;;;5.82;100.00
5883;BME280;2967;51.488;6.618;2023-01-27T01:02:20;102076.72;;;5.83;100.00
5883;BME280;2967;51.488;6.618;2023-01-27T01:07:24;102081.97;;;5.83;100.00
5883;BME280;2967;51.488;6.618;2023-01-27T01:12:26;102086.38;;;5.83;100.00
5883;BME280;2967;51.488;6.618;2023-01-27T01:17:30;102096.81;;;5.84;100.00
5883;BME280;2967;51.488;6.618;2023-01-27T01:22:33;101993.50;;;5.15;100.00
5883;BME280;2967;51.488;6.618;2023-01-27T01:27:36;102090.94;;;5.73;100.00
5883;BME280;2967;51.488;6.618;2023-01-27T01:32:40;102090.00;;;5.76;100.00
5883;BME280;2967;51.488;6.618;2023-01-27T01:37:43;102111.53;;;5.91;100.00
5883;BME280;2967;51.488;6.618;2023-01-27T01:42:52;102120.94;;;6.00;100.00
5883;BME280;2967;51.488;6.618;2023-01-27T01:47:57;102110.63;;;5.92;100.00
5883;BME280;2967;51.488;6.618;2023-01-27T01:53:02;102124.53;;;5.97;100.00
5883;BME280;2967;51.488;6.618;2023-01-27T01:58:07;102118.59;;;5.89;100.00
5883;BME280;2967;51.488;6.618;2023-01-27T02:03:13;102126.50;;;5.88;100.00
5883;BME280;2967;51.488;6.618;2023-01-27T02:08:20;102119.31;;;5.94;100.00
5883;BME280;2967;51.488;6.618;2023-01-27T02:13:24;102122.84;;;5.95;100.00
5883;BME280;2967;51.488;6.618;2023-01-27T02:18:28;102124.66;;;5.91;100.00
5883;BME280;2967;51.488;6.618;2023-01-27T02:23:42;102136.06;;;5.90;100.00
5883;BME280;2967;51.488;6.618;2023-01-27T02:28:53;102132.47;;;5.94;100.00
5883;BME280;2967;51.488;6.618;2023-01-27T02:34:00;102133.41;;;5.92;100.00
5883;BME280;2967;51.488;6.618;2023-01-27T02:39:07;102129.94;;;5.90;100.00
5883;BME280;2967;51.488;6.618;2023-01-27T02:44:12;102135.19;;;5.90;100.00
5883;BME280;2967;51.488;6.618;2023-01-27T02:49:14;102141.47;;;5.84;100.00
5883;BME280;2967;51.488;6.618;2023-01-27T02:54:18;102143.94;;;5.90;100.00
5883;BME280;2967;51.488;6.618;2023-01-27T02:59:22;102030.19;;;5.18;100.00
5883;BME280;2967;51.488;6.618;2023-01-27T03:04:24;102150.50;;;5.71;100.00
5883;BME280;2967;51.488;6.618;2023-01-27T03:09:27;102160.31;;;5.63;100.00
5883;BME280;2967;51.488;6.618;2023-01-27T03:14:31;102169.66;;;5.76;100.00
5883;BME280;2967;51.488;6.618;2023-01-27T03:19:51;102158.41;;;5.70;100.00
5883;BME280;2967;51.488;6.618;2023-01-27T03:24:54;102159.28;;;5.70;100.00
5883;BME280;2967;51.488;6.618;2023-01-27T03:29:58;102160.19;;;5.68;100.00
5883;BME280;2967;51.488;6.618;2023-01-27T03:35:05;102164.59;;;5.67;100.00
5883;BME280;2967;51.488;6.618;2023-01-27T03:40:10;102159.47;;;5.63;100.00
5883;BME280;2967;51.488;6.618;2023-01-27T03:45:32;102164.84;;;5.57;100.00
5883;BME280;2967;51.488;6.618;2023-01-27T03:50:56;102167.53;;;5.54;100.00
5883;BME280;2967;51.488;6.618;2023-01-27T03:55:58;102158.88;;;5.49;100.00
5883;BME280;2967;51.488;6.618;2023-01-27T04:01:04;102170.09;;;5.55;100.00
5883;BME280;2967;51.488;6.618;2023-01-27T04:06:09;102167.59;;;5.51;100.00
5883;BME280;2967;51.488;6.618;2023-01-27T04:11:29;102175.50;;;5.49;100.00
5883;BME280;2967;51.488;6.618;2023-01-27T04:16:53;102160.94;;;5.36;100.00
5883;BME280;2967;51.488;6.618;2023-01-27T04:21:57;102173.09;;;5.40;100.00
5883;BME280;2967;51.488;6.618;2023-01-27T04:27:01;102173.00;;;5.43;100.00
5883;BME280;2967;51.488;6.618;2023-01-27T04:32:07;102179.31;;;5.36;100.00
5883;BME280;2967;51.488;6.618;2023-01-27T04:37:10;102181.34;;;5.22;100.00
5883;BME280;2967;51.488;6.618;2023-01-27T04:42:14;102182.56;;;5.07;100.00
5883;BME280;2967;51.488;6.618;2023-01-27T04:47:17;102184.25;;;5.09;100.00
5883;BME280;2967;51.488;6.618;2023-01-27T04:52:20;102183.22;;;5.17;100.00
5883;BME280;2967;51.488;6.618;2023-01-27T04:57:23;102186.81;;;5.12;100.00
5883;BME280;2967;51.488;6.618;2023-01-27T05:02:27;102187.09;;;4.99;100.00
5883;BME280;2967;51.488;6.618;2023-01-27T05:07:29;102192.44;;;4.93;100.00
5883;BME280;2967;51.488;6.618;2023-01-27T05:12:33;102195.28;;;4.82;100.00
5883;BME280;2967;51.488;6.618;2023-01-27T05:17:37;102194.56;;;4.74;100.00
5883;BME280;2967;51.488;6.618;2023-01-27T05:22:39;102198.00;;;4.78;100.00
5883;BME280;2967;51.488;6.618;2023-01-27T05:27:42;102201.44;;;4.80;100.00
5883;BME280;2967;51.488;6.618;2023-01-27T05:32:47;102197.28;;;4.68;100.00
5883;BME280;2967;51.488;6.618;2023-01-27T05:37:49;102203.28;;;4.75;100.00
5883;BME280;2967;51.488;6.618;2023-01-27T05:42:52;102199.59;;;4.85;100.00
5883;BME280;2967;51.488;6.618;2023-01-27T05:47:56;102207.59;;;4.77;100.00
5883;BME280;2967;51.488;6.618;2023-01-27T05:52:59;102206.34;;;4.96;100.00
5883;BME280;2967;51.488;6.618;2023-01-27T05:58:01;102198.59;;;4.92;100.00
5883;BME280;2967;51.488;6.618;2023-01-27T06:03:05;102207.94;;;5.04;100.00
5883;BME280;2967;51.488;6.618;2023-01-27T06:08:08;102181.06;;;4.94;100.00
5883;BME280;2967;51.488;6.618;2023-01-27T06:13:11;102200.19;;;4.99;100.00
5883;BME280;2967;51.488;6.618;2023-01-27T06:18:16;102212.47;;;4.97;100.00
5883;BME280;2967;51.488;6.618;2023-01-27T06:23:18;102216.84;;;4.98;100.00
5883;BME280;2967;51.488;6.618;2023-01-27T06:28:22;102219.53;;;4.93;100.00
5883;BME280;2967;51.488;6.618;2023-01-27T06:33:31;102231.66;;;4.99;100.00
5883;BME280;2967;51.488;6.618;2023-01-27T06:38:34;102236.69;;;5.09;100.00
5883;BME280;2967;51.488;6.618;2023-01-27T06:43:38;102239.13;;;5.18;100.00
5883;BME280;2967;51.488;6.618;2023-01-27T06:48:43;102192.44;;;4.93;100.00
5883;BME280;2967;51.488;6.618;2023-01-27T06:53:46;102248.88;;;5.13;100.00
5883;BME280;2967;51.488;6.618;2023-01-27T06:58:48;102235.28;;;4.93;100.00
5883;BME280;2967;51.488;6.618;2023-01-27T07:03:53;102233.66;;;4.86;100.00
5883;BME280;2967;51.488;6.618;2023-01-27T07:08:55;102237.91;;;4.93;100.00
5883;BME280;2967;51.488;6.618;2023-01-27T07:13:58;102253.31;;;5.09;100.00
5883;BME280;2967;51.488;6.618;2023-01-27T07:19:02;102261.34;;;5.01;100.00
5883;BME280;2967;51.488;6.618;2023-01-27T07:24:05;102256.84;;;5.05;100.00
5883;BME280;2967;51.488;6.618;2023-01-27T07:29:07;102270.69;;;5.13;100.00
5883;BME280;2967;51.488;6.618;2023-01-27T07:34:11;102261.72;;;5.26;100.00
5883;BME280;2967;51.488;6.618;2023-01-27T07:39:14;102276.41;;;5.35;100.00
5883;BME280;2967;51.488;6.618;2023-01-27T07:44:17;102279.28;;;5.21;100.00
5883;BME280;2967;51.488;6.618;2023-01-27T07:49:23;102285.41;;;5.22;100.00
5883;BME280;2967;51.488;6.618;2023-01-27T07:54:28;102288.72;;;5.30;100.00
5883;BME280;2967;51.488;6.618;2023-01-27T07:59:30;102197.84;;;4.84;100.00
5883;BME280;2967;51.488;6.618;2023-01-27T08:04:34;102268.78;;;5.23;100.00
5883;BME280;2967;51.488;6.618;2023-01-27T08:09:53;102298.94;;;5.45;100.00
5883;BME280;2967;51.488;6.618;2023-01-27T08:14:57;102295.34;;;5.49;100.00
5883;BME280;2967;51.488;6.618;2023-01-27T08:20:02;102287.38;;;5.53;100.00
5883;BME280;2967;51.488;6.618;2023-01-27T08:25:06;102309.06;;;5.63;100.00
5883;BME280;2967;51.488;6.618;2023-01-27T08:30:09;102298.41;;;5.70;100.00
5883;BME280;2967;51.488;6.618;2023-01-27T08:35:14;102303.41;;;5.84;100.00
5883;BME280;2967;51.488;6.618;2023-01-27T08:40:17;102313.00;;;5.86;100.00
5883;BME280;2967;51.488;6.618;2023-01-27T08:45:19;102309.38;;;5.90;100.00
5883;BME280;2967;51.488;6.618;2023-01-27T08:50:23;102322.53;;;5.89;100.00
5883;BME280;2967;51.488;6.618;2023-01-27T08:55:27;102323.22;;;5.98;100.00
5883;BME280;2967;51.488;6.618;2023-01-27T09:00:30;102323.16;;;6.01;100.00
5883;BME280;2967;51.488;6.618;2023-01-27T09:05:35;102329.09;;;6.09;100.00
5883;BME280;2967;51.488;6.618;2023-01-27T09:10:38;102328.19;;;6.10;100.00
5883;BME280;2967;51.488;6.618;2023-01-27T09:15:42;102338.69;;;6.12;100.00
5883;BME280;2967;51.488;6.618;2023-01-27T09:20:47;102338.63;;;6.15;100.00
5883;BME280;2967;51.488;6.618;2023-01-27T09:25:50;102347.19;;;6.23;100.00
5883;BME280;2967;51.488;6.618;2023-01-27T09:30:57;102348.13;;;6.20;100.00
5883;BME280;2967;51.488;6.618;2023-01-27T09:36:05;102358.56;;;6.23;100.00
5883;BME280;2967;51.488;6.618;2023-01-27T09:41:24;102358.44;;;6.28;100.00
5883;BME280;2967;51.488;6.618;2023-01-27T09:46:44;102367.16;;;6.30;100.00
5883;BME280;2967;51.488;6.618;2023-01-27T09:52:03;102366.22;;;6.32;100.00
5883;BME280;2967;51.488;6.618;2023-01-27T09:57:15;102365.38;;;6.32;100.00
5883;BME280;2967;51.488;6.618;2023-01-27T10:02:35;102371.50;;;6.32;100.00
5883;BME280;2967;51.488;6.618;2023-01-27T10:07:59;102373.13;;;6.38;100.00
5883;BME280;2967;51.488;6.618;2023-01-27T10:13:18;102375.63;;;6.42;100.00
5883;BME280;2967;51.488;6.618;2023-01-27T10:18:35;102375.47;;;6.50;100.00
5883;BME280;2967;51.488;6.618;2023-01-27T10:23:53;102349.66;;;6.30;100.00
5883;BME280;2967;51.488;6.618;2023-01-27T10:29:08;102363.44;;;6.40;100.00
5883;BME280;2967;51.488;6.618;2023-01-27T10:34:21;102357.16;;;6.45;100.00
5883;BME280;2967;51.488;6.618;2023-01-27T10:39:44;102366.47;;;6.60;100.00
5883;BME280;2967;51.488;6.618;2023-01-27T10:45:05;102368.34;;;6.55;100.00
5883;BME280;2967;51.488;6.618;2023-01-27T10:50:14;102371.66;;;6.63;100.00
5883;BME280;2967;51.488;6.618;2023-01-27T10:55:21;102369.94;;;6.62;100.00
5883;BME280;2967;51.488;6.618;2023-01-27T11:00:31;102363.09;;;6.55;100.00
5883;BME280;2967;51.488;6.618;2023-01-27T11:05:57;102359.44;;;6.62;100.00
5883;BME280;2967;51.488;6.618;2023-01-27T11:11:08;102355.03;;;6.61;100.00
5883;BME280;2967;51.488;6.618;2023-01-27T11:16:47;102355.09;;;6.59;100.00
5883;BME280;2967;51.488;6.618;2023-01-27T11:21:52;102344.81;;;6.49;100.00
5883;BME280;2967;51.488;6.618;2023-01-27T11:27:16;102349.06;;;6.54;100.00
5883;BME280;2967;51.488;6.618;2023-01-27T11:32:30;102356.75;;;6.63;100.00
5883;BME280;2967;51.488;6.618;2023-01-27T11:37:38;102353.28;;;6.61;100.00
5883;BME280;2967;51.488;6.618;2023-01-27T11:42:43;102345.00;;;6.78;100.00
5883;BME280;2967;51.488;6.618;2023-01-27T11:47:48;102349.44;;;6.74;100.00
5883;BME280;2967;51.488;6.618;2023-01-27T11:52:58;102345.22;;;6.69;100.00
5883;BME280;2967;51.488;6.618;2023-01-27T11:58:11;102299.31;;;6.47;100.00
5883;BME280;2967;51.488;6.618;2023-01-27T12:03:19;102342.44;;;6.75;100.00
5883;BME280;2967;51.488;6.618;2023-01-27T12:08:41;102342.56;;;6.70;100.00
5883;BME280;2967;51.488;6.618;2023-01-27T12:13:54;102332.84;;;6.74;100.00
5883;BME280;2967;51.488;6.618;2023-01-27T12:19:00;102327.59;;;6.72;100.00
5883;BME280;2967;51.488;6.618;2023-01-27T12:24:11;102328.50;;;6.71;100.00
5883;BME280;2967;51.488;6.618;2023-01-27T12:29:23;102327.41;;;6.80;100.00
5883;BME280;2967;51.488;6.618;2023-01-27T12:34:30;102318.81;;;6.73;100.00
5883;BME280;2967;51.488;6.618;2023-01-27T12:39:41;102314.38;;;6.75;100.00
5883;BME280;2967;51.488;6.618;2023-01-27T12:44:48;102310.69;;;6.82;100.00
5883;BME280;2967;51.488;6.618;2023-01-27T12:50:19;102306.44;;;6.77;100.00
5883;BME280;2967;51.488;6.618;2023-01-27T12:55:29;102311.63;;;6.80;100.00
5883;BME280;2967;51.488;6.618;2023-01-27T13:00:34;102309.88;;;6.80;100.00
5883;BME280;2967;51.488;6.618;2023-01-27T13:05:39;102264.72;;;6.63;100.00
5883;BME280;2967;51.488;6.618;2023-01-27T13:10:51;102303.56;;;6.87;100.00
5883;BME280;2967;51.488;6.618;2023-01-27T13:16:03;102272.94;;;6.85;100.00
5883;BME280;2967;51.488;6.618;2023-01-27T13:21:11;102307.63;;;6.99;100.00
5883;BME280;2967;51.488;6.618;2023-01-27T13:26:17;102305.66;;;7.07;100.00
5883;BME280;2967;51.488;6.618;2023-01-27T13:31:33;102311.34;;;6.92;100.00
5883;BME280;2967;51.488;6.618;2023-01-27T13:36:41;102315.59;;;6.96;100.00
5883;BME280;2967;51.488;6.618;2023-01-27T13:41:48;102318.31;;;6.93;100.00
5883;BME280;2967;51.488;6.618;2023-01-27T13:46:56;102319.25;;;6.90;100.00
5883;BME280;2967;51.488;6.618;2023-01-27T13:52:04;102322.84;;;6.86;100.00
5883;BME280;2967;51.488;6.618;2023-01-27T13:57:19;102334.28;;;6.85;100.00
5883;BME280;2967;51.488;6.618;2023-01-27T14:02:56;102332.63;;;6.81;100.00
5883;BME280;2967;51.488;6.618;2023-01-27T14:08:14;102339.72;;;6.78;100.00
5883;BME280;2967;51.488;6.618;2023-01-27T14:13:31;102337.91;;;6.81;100.00
5883;BME280;2967;51.488;6.618;2023-01-27T14:18:41;102338.81;;;6.80;100.00
5883;BME280;2967;51.488;6.618;2023-01-27T14:23:51;102338.81;;;6.79;100.00
5883;BME280;2967;51.488;6.618;2023-01-27T14:29:09;102343.50;;;6.68;100.00
5883;BME280;2967;51.488;6.618;2023-01-27T14:34:31;102342.56;;;6.70;100.00
5883;BME280;2967;51.488;6.618;2023-01-27T14:39:41;102345.28;;;6.66;100.00
5883;BME280;2967;51.488;6.618;2023-01-27T14:44:53;102354.94;;;6.65;100.00
5883;BME280;2967;51.488;6.618;2023-01-27T14:50:17;102346.31;;;6.59;100.00
5883;BME280;2967;51.488;6.618;2023-01-27T14:55:31;102359.44;;;6.62;100.00
5883;BME280;2967;51.488;6.618;2023-01-27T15:00:44;102356.75;;;6.63;100.00
5883;BME280;2967;51.488;6.618;2023-01-27T15:05:56;102360.47;;;6.53;100.00
5883;BME280;2967;51.488;6.618;2023-01-27T15:11:18;102353.38;;;6.58;100.00
5883;BME280;2967;51.488;6.618;2023-01-27T15:16:31;102366.53;;;6.57;100.00
5883;BME280;2967;51.488;6.618;2023-01-27T15:21:56;102375.97;;;6.65;100.00
5883;BME280;2967;51.488;6.618;2023-01-27T15:27:06;102382.09;;;6.67;100.00
5883;BME280;2967;51.488;6.618;2023-01-27T15:32:20;102381.28;;;6.64;100.00
5883;BME280;2967;51.488;6.618;2023-01-27T15:37:28;102386.66;;;6.59;100.00
5883;BME280;2967;51.488;6.618;2023-01-27T15:42:49;102357.44;;;6.33;100.00
5883;BME280;2967;51.488;6.618;2023-01-27T15:47:56;102393.81;;;6.53;100.00
5883;BME280;2967;51.488;6.618;2023-01-27T15:53:03;102392.03;;;6.53;100.00
5883;BME280;2967;51.488;6.618;2023-01-27T15:58:21;102401.72;;;6.51;100.00
5883;BME280;2967;51.488;6.618;2023-01-27T16:03:26;102417.59;;;6.47;100.00
5883;BME280;2967;51.488;6.618;2023-01-27T16:08:37;102418.41;;;6.50;100.00
5883;BME280;2967;51.488;6.618;2023-01-27T16:13:41;102427.88;;;6.57;100.00
5883;BME280;2967;51.488;6.618;2023-01-27T16:18:47;102424.91;;;6.71;100.00
5883;BME280;2967;51.488;6.618;2023-01-27T16:23:55;102426.13;;;6.56;100.00
5883;BME280;2967;51.488;6.618;2023-01-27T16:29:15;102433.19;;;6.54;100.00
5883;BME280;2967;51.488;6.618;2023-01-27T16:34:23;102424.69;;;6.43;100.00
5883;BME280;2967;51.488;6.618;2023-01-27T16:39:33;102429.00;;;6.46;100.00
5883;BME280;2967;51.488;6.618;2023-01-27T16:44:40;102437.75;;;6.46;100.00
5883;BME280;2967;51.488;6.618;2023-01-27T16:49:45;102446.53;;;6.45;100.00
5883;BME280;2967;51.488;6.618;2023-01-27T16:54:52;102442.16;;;6.46;100.00
5883;BME280;2967;51.488;6.618;2023-01-27T16:59:56;102458.03;;;6.41;100.00
5883;BME280;2967;51.488;6.618;2023-01-27T17:05:04;102454.38;;;6.48;100.00
5883;BME280;2967;51.488;6.618;2023-01-27T17:10:13;102409.53;;;6.16;100.00
5883;BME280;2967;51.488;6.618;2023-01-27T17:15:36;102453.59;;;6.43;100.00
5883;BME280;2967;51.488;6.618;2023-01-27T17:20:41;102440.69;;;6.33;100.00
5883;BME280;2967;51.488;6.618;2023-01-27T17:25:49;102454.50;;;6.41;100.00
5883;BME280;2967;51.488;6.618;2023-01-27T17:31:00;102457.13;;;6.41;100.00
5883;BME280;2967;51.488;6.618;2023-01-27T17:36:09;102461.66;;;6.36;100.00
5883;BME280;2967;51.488;6.618;2023-01-27T17:41:29;102460.72;;;6.38;100.00
5883;BME280;2967;51.488;6.618;2023-01-27T17:46:34;102475.59;;;6.39;100.00
5883;BME280;2967;51.488;6.618;2023-01-27T17:51:39;102376.19;;;5.76;100.00
5883;BME280;2967;51.488;6.618;2023-01-27T17:56:44;102478.25;;;6.38;100.00
5883;BME280;2967;51.488;6.618;2023-01-27T18:01:48;102478.28;;;6.36;100.00
5883;BME280;2967;51.488;6.618;2023-01-27T18:06:52;102455.00;;;6.18;100.00
5883;BME280;2967;51.488;6.618;2023-01-27T18:11:58;102491.47;;;6.33;100.00
5883;BME280;2967;51.488;6.618;2023-01-27T18:17:03;102479.41;;;6.25;100.00
5883;BME280;2967;51.488;6.618;2023-01-27T18:22:13;102498.56;;;6.30;100.00
5883;BME280;2967;51.488;6.618;2023-01-27T18:27:27;102500.41;;;6.25;100.00
5883;BME280;2967;51.488;6.618;2023-01-27T18:32:36;102502.41;;;6.12;100.00
5883;BME280;2967;51.488;6.618;2023-01-27T18:37:50;102497.00;;;6.20;100.00
5883;BME280;2967;51.488;6.618;2023-01-27T18:42:55;102505.88;;;6.14;100.00
5883;BME280;2967;51.488;6.618;2023-01-27T18:47:59;102493.63;;;6.13;100.00
5883;BME280;2967;51.488;6.618;2023-01-27T18:53:10;102510.94;;;6.25;100.00
5883;BME280;2967;51.488;6.618;2023-01-27T18:58:15;102512.84;;;6.15;100.00
5883;BME280;2967;51.488;6.618;2023-01-27T19:03:21;102517.81;;;6.30;100.00
5883;BME280;2967;51.488;6.618;2023-01-27T19:08:25;102530.16;;;6.27;100.00
5883;BME280;2967;51.488;6.618;2023-01-27T19:13:29;102524.97;;;6.24;100.00
5883;BME280;2967;51.488;6.618;2023-01-27T19:18:34;102532.19;;;6.13;100.00
5883;BME280;2967;51.488;6.618;2023-01-27T19:23:39;102514.63;;;6.15;100.00
5883;BME280;2967;51.488;6.618;2023-01-27T19:28:48;102530.31;;;6.19;100.00
5883;BME280;2967;51.488;6.618;2023-01-27T19:33:52;102538.19;;;6.19;100.00
5883;BME280;2967;51.488;6.618;2023-01-27T19:39:00;102545.28;;;6.14;100.00
5883;BME280;2967;51.488;6.618;2023-01-27T19:44:12;102540.09;;;6.11;100.00
5883;BME280;2967;51.488;6.618;2023-01-27T19:49:16;102543.56;;;6.13;100.00
5883;BME280;2967;51.488;6.618;2023-01-27T19:54:20;102552.19;;;6.20;100.00
5883;BME280;2967;51.488;6.618;2023-01-27T19:59:24;102563.59;;;6.19;100.00
5883;BME280;2967;51.488;6.618;2023-01-27T20:04:29;102556.81;;;6.07;100.00
5883;BME280;2967;51.488;6.618;2023-01-27T20:09:32;102555.03;;;6.09;100.00
5883;BME280;2967;51.488;6.618;2023-01-27T20:14:36;102561.00;;;6.17;100.00
5883;BME280;2967;51.488;6.618;2023-01-27T20:19:39;102564.47;;;6.19;100.00
5883;BME280;2967;51.488;6.618;2023-01-27T20:24:42;102561.84;;;6.18;100.00
5883;BME280;2967;51.488;6.618;2023-01-27T20:29:46;102551.53;;;6.09;100.00
5883;BME280;2967;51.488;6.618;2023-01-27T20:34:49;102559.28;;;6.15;100.00
5883;BME280;2967;51.488;6.618;2023-01-27T20:39:52;102566.28;;;6.16;100.00
5883;BME280;2967;51.488;6.618;2023-01-27T20:44:56;102565.28;;;6.23;100.00
5883;BME280;2967;51.488;6.618;2023-01-27T20:49:59;102570.63;;;6.17;100.00
5883;BME280;2967;51.488;6.618;2023-01-27T20:55:02;102562.84;;;6.12;100.00
5883;BME280;2967;51.488;6.618;2023-01-27T21:00:09;102576.97;;;6.07;100.00
5883;BME280;2967;51.488;6.618;2023-01-27T21:05:12;102571.56;;;6.14;100.00
5883;BME280;2967;51.488;6.618;2023-01-27T21:10:17;102573.38;;;6.11;100.00
5883;BME280;2967;51.488;6.618;2023-01-27T21:15:22;102571.78;;;6.02;100.00
5883;BME280;2967;51.488;6.618;2023-01-27T21:20:25;102576.13;;;6.05;100.00
5883;BME280;2967;51.488;6.618;2023-01-27T21:25:27;102583.09;;;6.07;100.00
5883;BME280;2967;51.488;6.618;2023-01-27T21:30:32;102572.53;;;6.10;100.00
5883;BME280;2967;51.488;6.618;2023-01-27T21:35:34;102563.25;;;5.90;100.00
5883;BME280;2967;51.488;6.618;2023-01-27T21:40:37;102563.16;;;5.96;100.00
5883;BME280;2967;51.488;6.618;2023-01-27T21:45:42;102565.84;;;5.91;100.00
5883;BME280;2967;51.488;6.618;2023-01-27T21:50:49;102538.78;;;5.88;100.00
5883;BME280;2967;51.488;6.618;2023-01-27T21:55:52;102553.63;;;5.90;100.00
5883;BME280;2967;51.488;6.618;2023-01-27T22:00:56;102551.00;;;5.90;100.00
5883;BME280;2967;51.488;6.618;2023-01-27T22:06:02;102558.94;;;5.87;100.00
5883;BME280;2967;51.488;6.618;2023-01-27T22:11:08;102563.38;;;5.82;100.00
5883;BME280;2967;51.488;6.618;2023-01-27T22:16:14;102560.66;;;5.88;100.00
5883;BME280;2967;51.488;6.618;2023-01-27T22:21:17;102554.72;;;5.74;100.00
5883;BME280;2967;51.488;6.618;2023-01-27T22:26:19;102567.91;;;5.71;100.00
5883;BME280;2967;51.488;6.618;2023-01-27T22:31:24;102568.72;;;5.76;100.00
5883;BME280;2967;51.488;6.618;2023-01-27T22:36:26;102553.91;;;5.71;100.00
5883;BME280;2967;51.488;6.618;2023-01-27T22:41:29;102559.88;;;5.83;100.00
5883;BME280;2967;51.488;6.618;2023-01-27T22:46:34;102563.47;;;5.76;100.00
5883;BME280;2967;51.488;6.618;2023-01-27T22:51:36;102560.88;;;5.73;100.00
5883;BME280;2967;51.488;6.618;2023-01-27T22:56:39;102466.66;;;5.05;100.00
5883;BME280;2967;51.488;6.618;2023-01-27T23:01:45;102569.72;;;5.68;100.00
5883;BME280;2967;51.488;6.618;2023-01-27T23:06:47;102571.50;;;5.67;100.00
5883;BME280;2967;51.488;6.618;2023-01-27T23:11:50;102581.13;;;5.67;100.00
5883;BME280;2967;51.488;6.618;2023-01-27T23:16:54;102579.41;;;5.64;100.00
5883;BME280;2967;51.488;6.618;2023-01-27T23:21:59;102581.06;;;5.70;100.00
5883;BME280;2967;51.488;6.618;2023-01-27T23:27:01;102555.06;;;5.55;100.00
5883;BME280;2967;51.488;6.618;2023-01-27T23:32:06;102582.00;;;5.67;100.00
5883;BME280;2967;51.488;6.618;2023-01-27T23:37:08;102547.41;;;5.41;100.00
5883;BME280;2967;51.488;6.618;2023-01-27T23:42:11;102580.38;;;5.59;100.00
5883;BME280;2967;51.488;6.618;2023-01-27T23:47:15;102578.56;;;5.64;100.00
5883;BME280;2967;51.488;6.618;2023-01-27T23:52:18;102575.25;;;5.50;100.00
5883;BME280;2967;51.488;6.618;2023-01-27T23:57:20;102572.69;;;5.47;100.00
